createdAt,value
2018-04-06T00:00:26.329Z,0.00
2018-04-06T00:01:26.384Z,0.00
2018-04-06T00:02:26.129Z,0.00
2018-04-06T00:03:25.876Z,0.00
2018-04-06T00:04:26.855Z,0.00
2018-04-06T00:05:26.281Z,0.00
2018-04-06T00:06:25.915Z,0.00
2018-04-06T00:07:26.824Z,0.00
2018-04-06T00:08:26.513Z,0.00
2018-04-06T00:09:26.560Z,0.00
2018-04-06T00:10:26.740Z,0.00
2018-04-06T00:11:26.429Z,0.00
2018-04-06T00:12:26.256Z,0.00
2018-04-06T00:13:25.755Z,0.00
2018-04-06T00:14:26.376Z,0.00
2018-04-06T00:15:25.991Z,0.00
2018-04-06T00:16:26.653Z,0.00
2018-04-06T00:17:26.244Z,0.00
2018-04-06T00:18:26.164Z,0.00
2018-04-06T00:19:26.256Z,0.00
2018-04-06T00:20:26.436Z,0.00
2018-04-06T00:21:25.855Z,0.00
2018-04-06T00:22:26.352Z,0.00
2018-04-06T00:23:47.457Z,0.00
2018-04-06T00:24:48.232Z,0.00
2018-04-06T00:26:29.739Z,0.00
2018-04-06T00:27:30.496Z,0.00
2018-04-06T00:28:30.327Z,0.00
2018-04-06T00:29:29.845Z,0.00
2018-04-06T00:30:30.201Z,0.00
2018-04-06T00:31:29.823Z,0.00
2018-04-06T00:32:30.184Z,0.00
2018-04-06T00:33:29.724Z,0.00
2018-04-06T00:34:30.361Z,0.00
2018-04-06T00:35:51.003Z,0.00
2018-04-06T00:36:51.591Z,0.00
2018-04-06T00:37:51.889Z,0.00
2018-04-06T00:38:51.358Z,0.00
2018-04-06T00:39:51.711Z,0.00
2018-04-06T00:40:51.111Z,0.00
2018-04-06T00:41:51.530Z,0.00
2018-04-06T00:42:51.042Z,0.00
2018-04-06T00:43:51.736Z,0.00
2018-04-06T00:44:51.406Z,0.00
2018-04-06T00:45:52.139Z,0.00
2018-04-06T00:46:52.041Z,0.00
2018-04-06T00:47:51.793Z,0.00
2018-04-06T00:48:51.534Z,0.00
2018-04-06T00:49:52.025Z,0.00
2018-04-06T00:50:52.021Z,0.00
2018-04-06T00:52:12.876Z,0.00
2018-04-06T00:53:33.621Z,0.00
2018-04-06T00:54:34.474Z,0.00
2018-04-06T00:55:34.039Z,0.00
2018-04-06T00:56:34.859Z,0.00
2018-04-06T00:57:34.265Z,0.00
2018-04-06T00:58:34.902Z,0.00
2018-04-06T00:59:34.766Z,0.00
2018-04-06T01:00:34.485Z,0.00
2018-04-06T01:01:34.101Z,0.00
2018-04-06T01:02:34.870Z,0.00
2018-04-06T01:04:17.718Z,0.00
2018-04-06T01:05:18.064Z,0.00
2018-04-06T01:06:17.661Z,0.00
2018-04-06T01:07:39.199Z,0.00
2018-04-06T01:08:39.544Z,0.00
2018-04-06T01:09:39.399Z,0.00
2018-04-06T01:10:38.876Z,0.00
2018-04-06T01:11:39.583Z,0.00
2018-04-06T01:12:39.330Z,0.00
2018-04-06T01:13:40.091Z,0.00
2018-04-06T01:14:39.583Z,0.00
2018-04-06T01:15:39.026Z,0.00
2018-04-06T01:17:01.030Z,0.00
2018-04-06T01:18:01.861Z,0.00
2018-04-06T01:19:01.330Z,0.00
2018-04-06T01:20:43.194Z,0.00
2018-04-06T01:21:43.588Z,0.00
2018-04-06T01:22:44.196Z,0.00
2018-04-06T01:23:44.149Z,0.00
2018-04-06T01:25:05.767Z,0.00
2018-04-06T01:26:27.061Z,0.00
2018-04-06T01:27:49.093Z,0.00
2018-04-06T01:28:49.477Z,0.00
2018-04-06T01:29:50.224Z,0.00
2018-04-06T01:30:49.989Z,0.00
2018-04-06T01:31:49.857Z,0.00
2018-04-06T01:32:49.623Z,0.00
2018-04-06T01:33:48.862Z,0.00
2018-04-06T01:35:10.997Z,0.00
2018-04-06T01:36:11.501Z,0.00
2018-04-06T01:37:32.188Z,0.00
2018-04-06T01:38:32.479Z,0.00
2018-04-06T01:39:54.084Z,0.00
2018-04-06T01:40:54.702Z,0.00
2018-04-06T01:41:54.486Z,0.00
2018-04-06T01:42:53.878Z,0.00
2018-04-06T01:43:54.221Z,0.00
2018-04-06T01:44:54.917Z,0.00
2018-04-06T01:45:54.326Z,0.00
2018-04-06T01:46:55.058Z,0.00
2018-04-06T01:47:54.936Z,0.00
2018-04-06T01:49:00.513Z,0.00
2018-04-06T01:49:54.361Z,0.00
2018-04-06T01:50:55.120Z,0.00
2018-04-06T01:51:54.519Z,0.00
2018-04-06T01:52:55.268Z,0.00
2018-04-06T01:53:53.875Z,0.00
2018-04-06T01:54:54.454Z,0.00
2018-04-06T01:55:58.093Z,0.00
2018-04-06T01:56:54.584Z,0.00
2018-04-06T01:57:54.414Z,0.00
2018-04-06T01:58:54.159Z,0.00
2018-04-06T01:59:54.526Z,0.00
2018-04-06T02:00:53.971Z,0.00
2018-04-06T02:01:54.622Z,0.00
2018-04-06T02:02:54.470Z,0.00
2018-04-06T02:03:54.027Z,0.00
2018-04-06T02:04:54.474Z,0.00
2018-04-06T02:05:53.953Z,0.00
2018-04-06T02:07:15.913Z,0.00
2018-04-06T02:08:16.205Z,0.00
2018-04-06T02:09:18.444Z,0.00
2018-04-06T02:10:17.176Z,0.00
2018-04-06T02:11:16.675Z,0.00
2018-04-06T02:12:16.277Z,0.00
2018-04-06T02:13:17.049Z,0.00
2018-04-06T02:14:38.123Z,0.00
2018-04-06T02:15:38.756Z,0.00
2018-04-06T02:16:38.385Z,0.00
2018-04-06T02:17:39.436Z,0.00
2018-04-06T02:18:38.288Z,0.00
2018-04-06T02:19:39.896Z,0.00
2018-04-06T02:20:38.435Z,0.00
2018-04-06T02:21:37.887Z,0.00
2018-04-06T02:22:38.311Z,0.00
2018-04-06T02:23:39.069Z,0.00
2018-04-06T02:24:59.077Z,0.00
2018-04-06T02:25:59.975Z,0.00
2018-04-06T02:26:59.681Z,0.00
2018-04-06T02:28:20.353Z,0.00
2018-04-06T02:29:21.022Z,0.00
2018-04-06T02:30:20.891Z,0.00
2018-04-06T02:31:20.627Z,0.00
2018-04-06T02:32:20.537Z,0.00
2018-04-06T02:33:20.450Z,0.00
2018-04-06T02:34:41.060Z,0.00
2018-04-06T02:35:41.438Z,0.00
2018-04-06T02:36:41.171Z,0.00
2018-04-06T02:37:41.023Z,0.00
2018-04-06T02:38:41.631Z,0.00
2018-04-06T02:39:41.420Z,0.00
2018-04-06T02:41:02.079Z,0.00
2018-04-06T02:42:02.616Z,0.00
2018-04-06T02:43:02.107Z,0.00
2018-04-06T02:44:03.459Z,0.00
2018-04-06T02:45:02.296Z,0.00
2018-04-06T02:46:03.095Z,0.00
2018-04-06T02:47:02.902Z,0.00
2018-04-06T02:48:02.600Z,0.00
2018-04-06T02:49:02.289Z,0.00
2018-04-06T02:50:03.224Z,0.00
2018-04-06T02:51:44.164Z,0.00
2018-04-06T02:52:44.852Z,0.00
2018-04-06T02:53:44.650Z,0.00
2018-04-06T02:54:45.408Z,0.00
2018-04-06T02:55:45.223Z,0.00
2018-04-06T02:56:44.920Z,0.00
2018-04-06T02:57:48.997Z,0.00
2018-04-06T02:59:06.386Z,0.00
2018-04-06T03:00:07.249Z,0.00
2018-04-06T03:01:07.363Z,0.00
2018-04-06T03:02:07.078Z,0.00
2018-04-06T03:03:06.943Z,0.00
2018-04-06T03:04:10.159Z,0.00
2018-04-06T03:05:06.550Z,0.00
2018-04-06T03:07:16.507Z,0.00
2018-04-06T03:08:17.012Z,0.00
2018-04-06T03:09:16.581Z,0.00
2018-04-06T03:10:38.381Z,0.00
2018-04-06T03:11:39.020Z,0.00
2018-04-06T03:12:38.853Z,0.00
2018-04-06T03:13:38.612Z,0.00
2018-04-06T03:14:38.150Z,0.00
2018-04-06T03:15:39.064Z,0.00
2018-04-06T03:16:38.789Z,0.00
2018-04-06T03:17:38.626Z,0.00
2018-04-06T03:18:58.715Z,0.00
2018-04-06T03:19:59.669Z,0.00
2018-04-06T03:20:59.461Z,0.00
2018-04-06T03:21:59.161Z,0.00
2018-04-06T03:22:59.914Z,0.00
2018-04-06T03:23:59.675Z,0.00
2018-04-06T03:24:59.290Z,0.00
2018-04-06T03:25:59.067Z,0.00
2018-04-06T03:26:59.832Z,0.00
2018-04-06T03:28:19.917Z,0.00
2018-04-06T03:29:20.416Z,0.00
2018-04-06T03:30:20.789Z,0.00
2018-04-06T03:31:20.615Z,0.00
2018-04-06T03:32:20.108Z,0.00
2018-04-06T03:33:20.655Z,0.00
2018-04-06T03:34:41.251Z,0.00
2018-04-06T03:35:41.633Z,0.00
2018-04-06T03:36:41.294Z,0.00
2018-04-06T03:37:41.597Z,0.00
2018-04-06T03:38:42.099Z,0.00
2018-04-06T03:39:41.526Z,0.00
2018-04-06T03:40:41.096Z,0.00
2018-04-06T03:42:01.595Z,0.00
2018-04-06T03:43:02.146Z,0.00
2018-04-06T03:44:02.815Z,0.00
2018-04-06T03:45:02.663Z,0.00
2018-04-06T03:46:02.033Z,0.00
2018-04-06T03:47:02.770Z,0.00
2018-04-06T03:48:02.148Z,0.00
2018-04-06T03:49:02.970Z,0.00
2018-04-06T03:50:03.002Z,0.00
2018-04-06T03:51:02.457Z,0.00
2018-04-06T03:52:02.353Z,0.00
2018-04-06T03:53:02.603Z,0.00
2018-04-06T03:54:01.927Z,0.00
2018-04-06T03:55:02.283Z,0.00
2018-04-06T03:56:01.673Z,0.00
2018-04-06T03:57:02.339Z,0.00
2018-04-06T03:58:01.666Z,0.00
2018-04-06T03:59:02.248Z,0.00
2018-04-06T04:00:01.931Z,0.00
2018-04-06T04:01:02.847Z,1.00
2018-04-06T04:02:02.779Z,0.00
2018-04-06T04:03:31.700Z,0.00
2018-04-06T04:04:32.440Z,0.00
2018-04-06T04:05:32.344Z,0.00
2018-04-06T04:06:32.278Z,1.00
2018-04-06T04:07:32.649Z,1.00
2018-04-06T04:08:53.062Z,0.00
2018-04-06T04:09:53.545Z,1.00
2018-04-06T04:10:53.393Z,1.00
2018-04-06T04:11:52.985Z,1.00
2018-04-06T04:12:53.929Z,1.00
2018-04-06T04:13:53.244Z,1.00
2018-04-06T04:14:54.256Z,1.00
2018-04-06T04:15:55.361Z,2.00
2018-04-06T04:16:53.783Z,3.00
2018-04-06T04:17:53.711Z,2.00
2018-04-06T04:18:53.880Z,3.00
2018-04-06T04:19:53.666Z,4.00
2018-04-06T04:20:53.389Z,4.00
2018-04-06T04:21:58.079Z,5.00
2018-04-06T04:22:53.747Z,6.00
2018-04-06T04:23:53.566Z,7.00
2018-04-06T04:24:53.307Z,8.00
2018-04-06T04:25:54.280Z,10.00
2018-04-06T04:26:53.831Z,12.00
2018-04-06T04:27:53.322Z,14.00
2018-04-06T04:28:52.842Z,17.00
2018-04-06T04:29:53.597Z,20.00
2018-04-06T04:30:53.394Z,23.00
2018-04-06T04:31:54.326Z,28.00
2018-04-06T04:32:53.854Z,33.00
2018-04-06T04:33:53.447Z,39.00
2018-04-06T04:35:14.983Z,48.00
2018-04-06T04:36:39.119Z,60.00
2018-04-06T04:37:42.738Z,69.00
2018-04-06T04:38:39.293Z,80.00
2018-04-06T04:39:39.717Z,93.00
2018-04-06T04:40:39.188Z,105.00
2018-04-06T04:41:39.917Z,121.00
2018-04-06T04:42:39.611Z,136.00
2018-04-06T04:43:39.290Z,154.00
2018-04-06T04:44:38.811Z,173.00
2018-04-06T04:45:39.486Z,192.00
2018-04-06T04:46:39.082Z,215.00
2018-04-06T04:47:39.517Z,239.00
2018-04-06T04:48:39.284Z,265.00
2018-04-06T04:49:40.196Z,292.00
2018-04-06T04:50:39.791Z,322.00
2018-04-06T04:51:39.856Z,353.00
2018-04-06T04:53:01.446Z,398.00
2018-04-06T04:54:02.227Z,437.00
2018-04-06T04:55:01.976Z,476.00
2018-04-06T04:56:02.607Z,517.00
2018-04-06T04:57:01.937Z,562.00
2018-04-06T04:58:02.744Z,607.00
2018-04-06T04:59:22.242Z,672.00
2018-04-06T05:00:22.830Z,723.00
2018-04-06T05:01:24.685Z,774.00
2018-04-06T05:02:31.319Z,829.00
2018-04-06T05:03:23.413Z,885.00
2018-04-06T05:04:24.166Z,938.00
2018-04-06T05:05:24.434Z,992.00
2018-04-06T05:06:23.025Z,1050.00
2018-04-06T05:07:22.780Z,1108.00
2018-04-06T05:08:22.309Z,1164.00
2018-04-06T05:09:23.043Z,1224.00
2018-04-06T05:10:22.804Z,1289.00
2018-04-06T05:11:22.722Z,1354.00
2018-04-06T05:12:22.429Z,1420.00
2018-04-06T05:13:23.451Z,1483.00
2018-04-06T05:14:23.157Z,1547.00
2018-04-06T05:15:22.931Z,1604.00
2018-04-06T05:16:22.995Z,1669.00
2018-04-06T05:17:22.907Z,1742.00
2018-04-06T05:18:23.020Z,1817.00
2018-04-06T05:19:22.852Z,1895.00
2018-04-06T05:20:24.661Z,2003.00
2018-04-06T05:21:24.319Z,2222.00
2018-04-06T05:22:44.394Z,2496.00
2018-04-06T05:24:27.136Z,2561.00
2018-04-06T05:25:49.147Z,2571.00
2018-04-06T05:26:49.023Z,2700.00
2018-04-06T05:27:49.587Z,2759.00
2018-04-06T05:28:49.243Z,2929.00
2018-04-06T05:29:48.914Z,3131.00
2018-04-06T05:30:49.630Z,3294.00
2018-04-06T05:31:49.583Z,3241.00
2018-04-06T05:32:49.537Z,3075.00
2018-04-06T05:33:49.001Z,3175.00
2018-04-06T05:34:50.064Z,3159.00
2018-04-06T05:36:12.717Z,3155.00
2018-04-06T05:37:12.775Z,3385.00
2018-04-06T05:38:12.659Z,3495.00
2018-04-06T05:39:34.057Z,3527.00
2018-04-06T05:40:34.749Z,3743.00
2018-04-06T05:41:34.521Z,4265.00
2018-04-06T05:42:35.325Z,4464.00
2018-04-06T05:43:35.183Z,5309.00
2018-04-06T05:44:35.151Z,5566.00
2018-04-06T05:45:35.176Z,5518.00
2018-04-06T05:46:35.019Z,5639.00
2018-04-06T05:47:34.508Z,6202.00
2018-04-06T05:48:34.454Z,6286.00
2018-04-06T05:49:35.262Z,6488.00
2018-04-06T05:50:35.364Z,6609.00
2018-04-06T05:51:35.311Z,6185.00
2018-04-06T05:52:35.241Z,5563.00
2018-04-06T05:53:34.899Z,5872.00
2018-04-06T05:54:34.794Z,6069.00
2018-04-06T05:55:34.844Z,5361.00
2018-04-06T05:56:34.863Z,5124.00
2018-04-06T05:57:34.898Z,5503.00
2018-04-06T05:58:34.574Z,5459.00
2018-04-06T05:59:56.119Z,5685.00
2018-04-06T06:00:56.788Z,5663.00
2018-04-06T06:01:56.444Z,6025.00
2018-04-06T06:02:56.441Z,5981.00
2018-04-06T06:03:56.266Z,5798.00
2018-04-06T06:04:55.862Z,5635.00
2018-04-06T06:05:56.611Z,5604.00
2018-04-06T06:06:56.302Z,5650.00
2018-04-06T06:07:56.240Z,5459.00
2018-04-06T06:09:17.331Z,5563.00
2018-04-06T06:10:18.196Z,6069.00
2018-04-06T06:11:17.945Z,6911.00
2018-04-06T06:12:17.607Z,6833.00
2018-04-06T06:13:17.425Z,6252.00
2018-04-06T06:14:17.412Z,5968.00
2018-04-06T06:15:18.390Z,5992.00
2018-04-06T06:16:18.057Z,5929.00
2018-04-06T06:17:17.592Z,6029.00
2018-04-06T06:18:17.316Z,6458.00
2018-04-06T06:19:18.142Z,6819.00
2018-04-06T06:20:17.868Z,6624.00
2018-04-06T06:21:18.483Z,6259.00
2018-04-06T06:22:17.061Z,6344.00
2018-04-06T06:23:17.872Z,6013.00
2018-04-06T06:24:17.699Z,6139.00
2018-04-06T06:25:17.168Z,7037.00
2018-04-06T06:26:17.962Z,7875.00
2018-04-06T06:27:17.887Z,8304.00
2018-04-06T06:28:17.792Z,8626.00
2018-04-06T06:29:18.308Z,9025.00
2018-04-06T06:30:39.329Z,9889.00
2018-04-06T06:32:21.926Z,10832.00
2018-04-06T06:33:22.696Z,11065.00
2018-04-06T06:34:22.648Z,11140.00
2018-04-06T06:35:22.561Z,11081.00
2018-04-06T06:36:22.310Z,11264.00
2018-04-06T06:37:22.193Z,11697.00
2018-04-06T06:38:22.879Z,12387.00
2018-04-06T06:39:22.561Z,12617.00
2018-04-06T06:40:22.196Z,12655.00
2018-04-06T06:41:23.007Z,12673.00
2018-04-06T06:42:22.807Z,12733.00
2018-04-06T06:43:22.528Z,12943.00
2018-04-06T06:45:04.851Z,11854.00
2018-04-06T06:46:05.297Z,11400.00
2018-04-06T06:47:05.766Z,11200.00
2018-04-06T06:48:05.342Z,11368.00
2018-04-06T06:49:05.049Z,11677.00
2018-04-06T06:50:05.663Z,12123.00
2018-04-06T06:51:05.133Z,12531.00
2018-04-06T06:52:05.652Z,11531.00
2018-04-06T06:53:27.774Z,11525.00
2018-04-06T06:54:28.886Z,11479.00
2018-04-06T06:55:28.529Z,11374.00
2018-04-06T06:56:28.053Z,12393.00
2018-04-06T06:57:28.683Z,11558.00
2018-04-06T06:58:28.265Z,11414.00
2018-04-06T06:59:27.946Z,11122.00
2018-04-06T07:00:50.211Z,11204.00
2018-04-06T07:01:50.715Z,11338.00
2018-04-06T07:02:51.668Z,11127.00
2018-04-06T07:04:19.682Z,11243.00
2018-04-06T07:05:17.536Z,11286.00
2018-04-06T07:06:17.401Z,11395.00
2018-04-06T07:07:17.145Z,11452.00
2018-04-06T07:08:17.799Z,11452.00
2018-04-06T07:09:17.314Z,11476.00
2018-04-06T07:10:17.898Z,11482.00
2018-04-06T07:11:17.421Z,11523.00
2018-04-06T07:12:17.123Z,11619.00
2018-04-06T07:13:18.095Z,11728.00
2018-04-06T07:14:17.759Z,11795.00
2018-04-06T07:15:17.948Z,11800.00
2018-04-06T07:16:18.081Z,12110.00
2018-04-06T07:17:39.143Z,12600.00
2018-04-06T07:18:39.972Z,13055.00
2018-04-06T07:19:39.990Z,13631.00
2018-04-06T07:20:39.640Z,20656.00
2018-04-06T07:21:39.377Z,42216.00
2018-04-06T07:22:40.329Z,65192.00
2018-04-06T07:23:40.034Z,65535.00
2018-04-06T07:24:40.015Z,65535.00
2018-04-06T07:26:00.928Z,65535.00
2018-04-06T07:27:02.005Z,54288.00
2018-04-06T07:28:01.467Z,49288.00
2018-04-06T07:29:01.208Z,46984.00
2018-04-06T07:30:02.119Z,45448.00
2018-04-06T07:31:01.974Z,45096.00
2018-04-06T07:32:01.951Z,44768.00
2018-04-06T07:33:02.010Z,42928.00
2018-04-06T07:34:01.559Z,42176.00
2018-04-06T07:35:01.128Z,44056.00
2018-04-06T07:36:01.925Z,45136.00
2018-04-06T07:37:01.534Z,44784.00
2018-04-06T07:38:01.053Z,44312.00
2018-04-06T07:39:23.332Z,45560.00
2018-04-06T07:40:24.243Z,46160.00
2018-04-06T07:41:24.039Z,46392.00
2018-04-06T07:42:23.833Z,47128.00
2018-04-06T07:43:23.319Z,47992.00
2018-04-06T07:44:24.090Z,48912.00
2018-04-06T07:45:23.655Z,49552.00
2018-04-06T07:46:23.652Z,49448.00
2018-04-06T07:47:23.216Z,50168.00
2018-04-06T07:48:23.884Z,51008.00
2018-04-06T07:49:23.394Z,50728.00
2018-04-06T07:50:23.385Z,50456.00
2018-04-06T07:51:23.161Z,50000.00
2018-04-06T07:52:24.046Z,49256.00
2018-04-06T07:53:23.700Z,50184.00
2018-04-06T07:54:23.344Z,52040.00
2018-04-06T07:55:23.021Z,52928.00
2018-04-06T07:56:23.659Z,51424.00
2018-04-06T07:57:23.428Z,50360.00
2018-04-06T07:58:25.095Z,50096.00
2018-04-06T07:59:23.802Z,50136.00
2018-04-06T08:00:23.459Z,51360.00
2018-04-06T08:01:24.329Z,52320.00
2018-04-06T08:02:23.844Z,51736.00
2018-04-06T08:03:45.423Z,50936.00
2018-04-06T08:04:46.479Z,50648.00
2018-04-06T08:05:46.473Z,50896.00
2018-04-06T08:06:46.498Z,51800.00
2018-04-06T08:07:46.450Z,53344.00
2018-04-06T08:09:08.637Z,54416.00
2018-04-06T08:10:09.467Z,54816.00
2018-04-06T08:11:08.183Z,54704.00
2018-04-06T08:12:09.012Z,53672.00
2018-04-06T08:13:09.001Z,53576.00
2018-04-06T08:15:12.459Z,53192.00
2018-04-06T08:16:12.584Z,52520.00
2018-04-06T08:17:33.959Z,55608.00
2018-04-06T08:18:34.826Z,58072.00
2018-04-06T08:19:34.881Z,59576.00
2018-04-06T08:20:34.600Z,59360.00
2018-04-06T08:21:34.424Z,57984.00
2018-04-06T08:22:55.485Z,57128.00
2018-04-06T08:23:56.460Z,57872.00
2018-04-06T08:24:55.635Z,60608.00
2018-04-06T08:25:55.644Z,62432.00
2018-04-06T08:26:56.339Z,62392.00
2018-04-06T08:27:55.985Z,61360.00
2018-04-06T08:28:55.710Z,60072.00
2018-04-06T08:29:55.454Z,60840.00
2018-04-06T08:30:55.200Z,61184.00
2018-04-06T08:31:55.908Z,59864.00
2018-04-06T08:32:55.595Z,59032.00
2018-04-06T08:33:55.218Z,58768.00
2018-04-06T08:35:17.552Z,60880.00
2018-04-06T08:36:18.147Z,63080.00
2018-04-06T08:37:17.646Z,64784.00
2018-04-06T08:38:17.665Z,65064.00
2018-04-06T08:39:17.846Z,63944.00
2018-04-06T08:40:18.115Z,64144.00
2018-04-06T08:41:18.128Z,63840.00
2018-04-06T08:43:00.491Z,63416.00
2018-04-06T08:44:00.228Z,64512.00
2018-04-06T08:44:59.996Z,65535.00
2018-04-06T08:46:00.574Z,65535.00
2018-04-06T08:47:21.706Z,65535.00
2018-04-06T08:48:22.349Z,65535.00
2018-04-06T08:49:44.676Z,65304.00
2018-04-06T08:50:44.576Z,65535.00
2018-04-06T08:51:45.323Z,65535.00
2018-04-06T08:52:45.290Z,65535.00
2018-04-06T08:54:27.383Z,65535.00
2018-04-06T08:55:28.623Z,65535.00
2018-04-06T08:57:09.191Z,65535.00
2018-04-06T08:58:33.402Z,65535.00
2018-04-06T08:59:34.268Z,65535.00
2018-04-06T09:00:34.127Z,64016.00
2018-04-06T09:01:34.380Z,65535.00
2018-04-06T09:02:34.726Z,65535.00
2018-04-06T09:03:33.612Z,65535.00
2018-04-06T09:04:34.843Z,65535.00
2018-04-06T09:05:33.903Z,65535.00
2018-04-06T09:06:34.558Z,65535.00
2018-04-06T09:07:55.612Z,65535.00
2018-04-06T09:08:56.330Z,65535.00
2018-04-06T09:09:56.333Z,65535.00
2018-04-06T09:10:56.032Z,65535.00
2018-04-06T09:11:55.557Z,65535.00
2018-04-06T09:12:56.691Z,65535.00
2018-04-06T09:13:55.375Z,65535.00
2018-04-06T09:14:56.225Z,65535.00
2018-04-06T09:15:56.192Z,65535.00
2018-04-06T09:16:56.152Z,65535.00
2018-04-06T09:17:55.715Z,65535.00
2018-04-06T09:18:56.103Z,65535.00
2018-04-06T09:19:55.766Z,65535.00
2018-04-06T09:20:55.745Z,65535.00
2018-04-06T09:21:55.645Z,65535.00
2018-04-06T09:23:17.706Z,65535.00
2018-04-06T09:24:18.701Z,65535.00
2018-04-06T09:25:18.823Z,65535.00
2018-04-06T09:26:18.970Z,65535.00
2018-04-06T09:27:17.900Z,65535.00
2018-04-06T09:28:18.249Z,65535.00
2018-04-06T09:29:18.177Z,65535.00
2018-04-06T09:30:18.015Z,65535.00
2018-04-06T09:31:17.894Z,65535.00
2018-04-06T09:32:17.943Z,65535.00
2018-04-06T09:33:17.918Z,65535.00
2018-04-06T09:34:17.660Z,65535.00
2018-04-06T09:35:18.467Z,65535.00
2018-04-06T09:36:18.179Z,65535.00
2018-04-06T09:37:17.870Z,65535.00
2018-04-06T09:38:17.456Z,65535.00
2018-04-06T09:39:18.138Z,65535.00
2018-04-06T09:40:18.364Z,65535.00
2018-04-06T09:42:00.066Z,65535.00
2018-04-06T09:43:00.657Z,65535.00
2018-04-06T09:44:00.315Z,65535.00
2018-04-06T09:45:21.522Z,65535.00
2018-04-06T09:46:22.529Z,65535.00
2018-04-06T09:47:22.699Z,65535.00
2018-04-06T09:48:21.562Z,65535.00
2018-04-06T09:49:22.118Z,65535.00
2018-04-06T09:50:21.809Z,65535.00
2018-04-06T09:51:21.516Z,65535.00
2018-04-06T09:52:22.822Z,65535.00
2018-04-06T09:53:43.178Z,65535.00
2018-04-06T09:54:44.706Z,65535.00
2018-04-06T09:55:43.826Z,65535.00
2018-04-06T09:56:43.635Z,65535.00
2018-04-06T09:57:43.538Z,65535.00
2018-04-06T09:58:43.429Z,65535.00
2018-04-06T09:59:43.362Z,65535.00
2018-04-06T10:00:44.173Z,65535.00
2018-04-06T10:01:44.407Z,65535.00
2018-04-06T10:02:44.562Z,65535.00
2018-04-06T10:03:43.782Z,65535.00
2018-04-06T10:04:46.161Z,65535.00
2018-04-06T10:05:44.422Z,65535.00
2018-04-06T10:06:43.422Z,65535.00
2018-04-06T10:07:44.656Z,65535.00
2018-04-06T10:08:43.934Z,65535.00
2018-04-06T10:09:44.230Z,65535.00
2018-04-06T10:11:05.643Z,65535.00
2018-04-06T10:12:27.691Z,65535.00
2018-04-06T10:13:27.391Z,65535.00
2018-04-06T10:14:28.309Z,65535.00
2018-04-06T10:15:49.049Z,65535.00
2018-04-06T10:16:49.704Z,65535.00
2018-04-06T10:17:49.708Z,65535.00
2018-04-06T10:18:49.876Z,65535.00
2018-04-06T10:19:49.847Z,65535.00
2018-04-06T10:20:49.598Z,65535.00
2018-04-06T10:21:49.651Z,65535.00
2018-04-06T10:22:49.324Z,65535.00
2018-04-06T10:23:50.202Z,65535.00
2018-04-06T10:25:11.143Z,65535.00
2018-04-06T10:26:33.899Z,65535.00
2018-04-06T10:27:34.555Z,65535.00
2018-04-06T10:28:34.470Z,65535.00
2018-04-06T10:29:34.660Z,65535.00
2018-04-06T10:30:34.185Z,65535.00
2018-04-06T10:31:33.964Z,65535.00
2018-04-06T10:32:34.989Z,65535.00
2018-04-06T10:33:56.498Z,65535.00
2018-04-06T10:34:57.621Z,65535.00
2018-04-06T10:35:57.708Z,65535.00
2018-04-06T10:36:57.684Z,65535.00
2018-04-06T10:37:57.645Z,65535.00
2018-04-06T10:38:57.582Z,65535.00
2018-04-06T10:39:57.740Z,65535.00
2018-04-06T10:40:57.762Z,65535.00
2018-04-06T10:41:57.503Z,65535.00
2018-04-06T10:42:57.784Z,65535.00
2018-04-06T10:44:18.622Z,65535.00
2018-04-06T10:45:18.731Z,65535.00
2018-04-06T10:46:18.529Z,65535.00
2018-04-06T10:47:40.523Z,65535.00
2018-04-06T10:48:41.490Z,65535.00
2018-04-06T10:49:41.591Z,65535.00
2018-04-06T10:50:41.772Z,65535.00
2018-04-06T10:51:41.616Z,65535.00
2018-04-06T10:52:41.328Z,65535.00
2018-04-06T10:53:40.790Z,65535.00
2018-04-06T10:54:41.681Z,65535.00
2018-04-06T10:55:41.682Z,65535.00
2018-04-06T10:56:41.482Z,65535.00
2018-04-06T10:57:42.280Z,65535.00
2018-04-06T10:58:43.214Z,65535.00
2018-04-06T10:59:41.082Z,65535.00
2018-04-06T11:00:40.783Z,65535.00
2018-04-06T11:01:41.819Z,65535.00
2018-04-06T11:02:41.343Z,65535.00
2018-04-06T11:03:41.022Z,65535.00
2018-04-06T11:04:40.622Z,65535.00
2018-04-06T11:05:41.430Z,65535.00
2018-04-06T11:06:41.026Z,65535.00
2018-04-06T11:07:40.762Z,65535.00
2018-04-06T11:08:41.779Z,65535.00
2018-04-06T11:09:41.789Z,65535.00
2018-04-06T11:11:03.196Z,65535.00
2018-04-06T11:12:04.219Z,65535.00
2018-04-06T11:13:04.092Z,65535.00
2018-04-06T11:14:04.169Z,65535.00
2018-04-06T11:15:04.410Z,65535.00
2018-04-06T11:16:04.013Z,65535.00
2018-04-06T11:17:03.923Z,65535.00
2018-04-06T11:18:25.728Z,65535.00
2018-04-06T11:19:26.425Z,65535.00
2018-04-06T11:20:26.513Z,65535.00
2018-04-06T11:21:47.696Z,65535.00
2018-04-06T11:22:48.283Z,65535.00
2018-04-06T11:23:48.453Z,65535.00
2018-04-06T11:24:48.507Z,65535.00
2018-04-06T11:25:48.060Z,65535.00
2018-04-06T11:26:48.083Z,65535.00
2018-04-06T11:27:47.552Z,65535.00
2018-04-06T11:28:49.431Z,65535.00
2018-04-06T11:29:48.452Z,65535.00
2018-04-06T11:30:48.451Z,65535.00
2018-04-06T11:31:48.403Z,65535.00
2018-04-06T11:32:48.405Z,65535.00
2018-04-06T11:33:48.025Z,65535.00
2018-04-06T11:34:48.082Z,65535.00
2018-04-06T11:35:47.630Z,65535.00
2018-04-06T11:36:47.670Z,65535.00
2018-04-06T11:37:48.563Z,65535.00
2018-04-06T11:38:48.320Z,65535.00
2018-04-06T11:39:48.268Z,65535.00
2018-04-06T11:40:48.306Z,65535.00
2018-04-06T11:41:48.329Z,65535.00
2018-04-06T11:42:49.940Z,65535.00
2018-04-06T11:43:48.013Z,65535.00
2018-04-06T11:45:09.450Z,65535.00
2018-04-06T11:46:52.596Z,65535.00
2018-04-06T11:47:53.358Z,65535.00
2018-04-06T11:48:53.417Z,65535.00
2018-04-06T11:49:53.524Z,65535.00
2018-04-06T11:50:53.855Z,65535.00
2018-04-06T11:51:52.428Z,65535.00
2018-04-06T11:53:14.536Z,65535.00
2018-04-06T11:54:15.214Z,65535.00
2018-04-06T11:55:15.266Z,65535.00
2018-04-06T11:56:15.416Z,65535.00
2018-04-06T11:57:15.581Z,65535.00
2018-04-06T11:58:15.287Z,65535.00
2018-04-06T11:59:15.586Z,65535.00
2018-04-06T12:00:15.387Z,65535.00
2018-04-06T12:02:03.995Z,65535.00
2018-04-06T12:03:05.474Z,65535.00
2018-04-06T12:04:03.509Z,65535.00
2018-04-06T12:05:04.234Z,65535.00
2018-04-06T12:06:03.334Z,65535.00
2018-04-06T12:07:03.064Z,65535.00
2018-04-06T12:08:23.257Z,65535.00
2018-04-06T12:09:24.521Z,65535.00
2018-04-06T12:10:23.656Z,65535.00
2018-04-06T12:12:05.274Z,65535.00
2018-04-06T12:13:05.390Z,65535.00
2018-04-06T12:14:05.244Z,65535.00
2018-04-06T12:15:05.568Z,65535.00
2018-04-06T12:16:05.664Z,65535.00
2018-04-06T12:17:05.834Z,65535.00
2018-04-06T12:18:05.433Z,65535.00
2018-04-06T12:19:05.587Z,65535.00
2018-04-06T12:20:06.186Z,65535.00
2018-04-06T12:21:05.233Z,65535.00
2018-04-06T12:22:05.410Z,65535.00
2018-04-06T12:23:05.361Z,65535.00
2018-04-06T12:24:05.368Z,65535.00
2018-04-06T12:25:05.141Z,65535.00
2018-04-06T12:26:47.663Z,65535.00
2018-04-06T12:28:32.155Z,65535.00
2018-04-06T12:29:53.844Z,65535.00
2018-04-06T12:30:53.605Z,65535.00
2018-04-06T12:32:16.044Z,65535.00
2018-04-06T12:33:15.915Z,65535.00
2018-04-06T12:34:16.079Z,65535.00
2018-04-06T12:35:57.104Z,65535.00
2018-04-06T12:36:58.196Z,65535.00
2018-04-06T12:38:19.841Z,65535.00
2018-04-06T12:39:40.518Z,65535.00
2018-04-06T12:40:41.066Z,65535.00
2018-04-06T12:41:40.841Z,65535.00
2018-04-06T12:42:40.970Z,65535.00
2018-04-06T12:44:03.338Z,65535.00
2018-04-06T12:45:26.768Z,65535.00
2018-04-06T12:46:27.778Z,65535.00
2018-04-06T12:47:26.559Z,65535.00
2018-04-06T12:48:27.351Z,65535.00
2018-04-06T12:49:27.289Z,65535.00
2018-04-06T12:50:26.963Z,65535.00
2018-04-06T12:51:27.163Z,65535.00
2018-04-06T12:52:27.439Z,65535.00
2018-04-06T12:53:27.510Z,65535.00
2018-04-06T12:54:27.279Z,65535.00
2018-04-06T12:55:27.219Z,65535.00
2018-04-06T12:56:27.211Z,65535.00
2018-04-06T12:57:27.730Z,65535.00
2018-04-06T12:58:27.483Z,65535.00
2018-04-06T12:59:27.375Z,65535.00
2018-04-06T13:00:27.086Z,65535.00
2018-04-06T13:01:26.987Z,65535.00